Amargosa Valley, Nevada Weather observations

Data are for observation ending at time listed.
 Day   Time    Ave.   Ave.  Ave.  Vector   Max.   Stn.    Total    Solar   Ave.  
  of    of     Air    Rel.  Wind   Wind    Wind   Baro.  Precip.   Rad.    Soil  
Year   Day     Temp.  Hum.  Speed  Dir.    Gust   Pres.                    Temp. 
2016   (PST)    F      %     mph   deg.    mph     mb.     in.     W/m2     F   
------------------------------------------------------------------------------
 121   17:30   65.5    44    1.5   243      4.2   922.8    0.00     102    64.8
 121   17:40   65.4    44    1.1   238      4.6   922.8    0.00     109    64.8
 121   17:50   65.0    45    2.2   231      3.9   922.9    0.00      54    64.9
 121   18:00   64.6    46    2.0   219      3.4   923.0    0.00      25    64.9
 121   18:10   64.2    48    0.6   284      2.8   923.2    0.00      19    65.0
 121   18:20   63.6    50    0.6   305      2.8   923.2    0.00      14    65.0
 121   18:30   63.2    50    0.7   312      2.0   923.2    0.00       9    65.0
 121   18:40   63.1    52    0.4   153      3.0   923.3    0.00       3    65.1
 121   18:50   62.2    62    5.3   109      7.8   923.5    0.00       0    65.1
 121   19:00   61.6    64    5.0   106      7.5   923.6    0.00       0    65.1
 121   19:10   61.6    60    9.1    96     13.4   923.9    0.00       0    65.1
 121   19:20   60.6    59   11.0    96     16.6   924.1    0.00       0    65.1
 121   19:30   60.8    54    9.5    89     15.2   924.1    0.00       0    65.1
 121   19:40   60.1    58    1.0    38      3.9   924.3    0.00       0    65.1
 121   19:50   59.3    61    0.3   312      1.5   924.2    0.00       0    65.1
 121   20:00   59.3    62    0.0    16      0.1   924.2    0.00       0    65.0
 121   20:10   59.2    62    1.0   105      3.4   924.1    0.00       0    65.0
 121   20:20   57.5    71    1.1   158      3.5   924.2    0.00       0    65.0
 121   20:30   57.3    69    0.0     0      0.0   924.3    0.00       1    64.9
 121   20:40   56.9    73    0.0    91      0.4   924.6    0.00       0    64.9
 121   20:50   56.6    73    3.3   306      7.5   925.0    0.00       0    64.8
 121   21:00   57.3    69    1.9   311      5.9   925.0    0.00       0    64.7
 121   21:10   57.8    68    0.5   316      2.2   924.9    0.00       0    64.7
 121   21:20   57.0    71    2.4   305      5.9   924.9    0.00       0    64.6
 121   21:30   56.7    73    0.8   314      3.1   924.9    0.00       0    64.5
 121   21:40   56.2    76    0.2    52      2.6   925.0    0.00       0    64.5
 121   21:50   55.9    77    4.2    89      8.8   925.3    0.00       0    64.4
 121   22:00   56.1    76    0.7    98      2.5   925.2    0.00       0    64.4
 121   22:10   56.0    76    0.0     0      0.0   925.1    0.00       0    64.3
 121   22:20   55.3    79    3.2   308      6.4   924.9    0.00       0    64.2
 121   22:30   54.7    81    0.3   321      2.6   924.9    0.00       0    64.2
 121   22:40   54.2    82    2.0   309      9.6   924.9    0.00       0    64.1
 121   22:50   54.0    82    1.0   316      3.7   924.9    0.00       0    64.1
 121   23:00   53.8    81    0.1   326      1.1   924.9    0.00       0    64.0
 121   23:10   53.5    81    0.0   322      1.1   924.9    0.00       0    63.9
 121   23:20   53.7    78    0.1   324      2.1   925.0    0.00       0    63.9
 121   23:30   54.4    74    0.0   354      0.7   925.0    0.00       0    63.8
 121   23:40   55.0    71    0.4     4      3.5   925.1    0.00       0    63.7
 121   23:50   55.1    70    3.4   309      8.8   925.2    0.00       0    63.6
 122    0:00   54.8    72    2.0   316      8.8   925.2    0.00       0    63.5
 122    0:10   53.8    76    0.6   320      3.1   925.2    0.00       0    63.5
 122    0:20   53.6    76    1.7   316      4.5   925.1    0.00       0    63.4
 122    0:30   53.3    77    0.6   312      3.1   925.0    0.00       0    63.3
 122    0:40   53.7    75    3.4   312      8.9   925.0    0.00       0    63.2
 122    0:50   53.4    75    1.2   318      4.4   924.9    0.00       0    63.1
 122    1:00   52.9    73    0.3   324      3.7   924.9    0.00       0    63.1
 122    1:10   52.4    73    0.3   317      1.8   924.9    0.00       0    63.0
 122    1:20   52.1    72    2.3   309      7.5   924.9    0.00       0    62.9
 122    1:30   52.2    70    0.8   318      3.4   925.0    0.00       0    62.8
 122    1:40   52.1    69    0.2   325      2.9   925.0    0.00       0    62.7
 122    1:50   53.4    62    0.2   337      1.2   925.0    0.00       0    62.7
 122    2:00   53.3    62    1.2   318      3.2   925.0    0.00       0    62.6
 122    2:10   53.0    62    1.2   326      3.4   924.8    0.00       0    62.5
 122    2:20   53.9    58    1.6   334      4.3   924.8    0.00       0    62.4
 122    2:30   54.5    56    0.9   340      2.9   924.9    0.00       0    62.3
 122    2:40   54.3    57    0.4   348      2.1   925.1    0.00       0    62.2
 122    2:50   54.1    57    0.4   349      2.2   925.1    0.00       0    62.1
 122    3:00   53.5    59    0.4   343      2.0   925.1    0.00       0    62.1
 122    3:10   52.7    61    0.2   334      1.5   925.2    0.00       0    62.0
 122    3:20   51.7    64    0.3   325      1.9   925.2    0.00       0    61.9
 122    3:30   51.5    64    0.1   339      0.9   925.3    0.00       0    61.8
 122    3:40   51.7    63    0.0     9      0.5   925.3    0.00       0    61.7
 122    3:50   51.4    63    0.0   352      0.7   925.3    0.00       0    61.6
 122    4:00   51.0    64    0.0     0      0.0   925.3    0.00       0    61.6
 122    4:10   51.3    63    0.6    20      3.7   925.4    0.00       0    61.5
 122    4:20   51.3    62    0.0   358      0.9   925.3    0.00       0    61.4
 122    4:30   51.6    61    0.1   347      1.2   925.4    0.00       0    61.3
 122    4:40   51.0    63    1.7   318      4.0   925.5    0.00       0    61.2
 122    4:50   50.3    65    0.6   325      3.1   925.6    0.00       2    61.1
 122    5:00   50.3    65    0.2     0      1.6   925.6    0.00       6    61.0
 122    5:10   50.9    62    0.2   351      1.5   925.6    0.00      12    61.0
 122    5:20   53.5    54    0.4   353      1.8   925.7    0.00      31    60.9
 122    5:30   53.3    56    1.8   324      4.2   926.0    0.00      67    60.8
 122    5:40   54.0    53    3.4   318      8.9   926.2    0.00      97    60.7
 122    5:50   54.5    54    2.9   316      6.6   926.4    0.00     132    60.6
 122    6:00   55.1    52    3.9   318      8.4   926.6    0.00     163    60.5
 122    6:10   56.0    49    4.2   318      7.5   926.7    0.00     196    60.4
 122    6:20   56.3    48    6.0   311      9.1   926.9    0.00     230    60.4
 122    6:30   56.7    49    6.1   307     10.9   927.0    0.00     263    60.3
 122    6:40   57.5    48    4.4   313      8.2   927.1    0.00     299    60.2
 122    6:50   58.6    47    3.5   315      7.4   927.2    0.00     332    60.2
 122    7:00   59.2    45    4.5   314     10.1   927.4    0.00     366    60.1
 122    7:10   59.6    44    5.0   310     10.2   927.4    0.00     401    60.1
 122    7:20   60.8    42    3.3   320      6.0   927.4    0.00     432    60.0
 122    7:30   62.0    40    2.6   322      6.6   927.5    0.00     467    60.0
 122    7:40   63.0    37    2.0   326      7.6   927.6    0.00     499    59.9
 122    7:50   64.0    35    1.5   321      4.9   927.7    0.00     530    59.9
 122    8:00   64.4    34    1.3   331      4.9   927.7    0.00     565    59.9
 122    8:10   65.1    35    1.4   327      4.6   927.7    0.00     598    59.9
 122    8:20   66.1    34    1.8   325      6.1   927.8    0.00     629    59.9
 122    8:30   65.8    32    2.3   320      6.2   927.7    0.00     660    59.8
 122    8:40   66.6    31    1.3   353      5.3   927.8    0.00     690    59.9
 122    8:50   67.8    31    1.3   329      5.2   927.8    0.00     712    59.9
 122    9:00   67.9    30    2.7    52      5.6   927.9    0.00     744    60.0
 122    9:10   68.1    29    3.5   108      8.6   928.0    0.00     765    60.0
 122    9:20   67.9    28    5.7    80     12.0   928.0    0.00     792    60.1
 122    9:30   68.5    28    4.7    81      9.9   928.0    0.00     815    60.1
 122    9:40   68.7    28    6.3    86     12.6   928.0    0.00     836    60.1
 122    9:50   69.1    28    5.3    75     12.1   928.0    0.00     856    60.2
 122   10:00   69.6    27    3.8    66     10.3   928.0    0.00     875    60.3
 122   10:10   69.7    27    3.5    75     10.4   927.9    0.00     891    60.5
 122   10:20   70.4    27    4.5    65     10.9   927.8    0.00     907    60.6
 122   10:30   69.9    27    3.1    98      8.9   927.8    0.00     919    60.7
 122   10:40   70.4    26    4.4    77     10.6   927.8    0.00     930    60.8
 122   10:50   70.7    26    4.0    84      9.7   927.7    0.00     943    60.9
 122   11:00   71.5    26    3.4    57      9.3   927.7    0.00     952    61.1
 122   11:10   71.4    25    2.2    62      6.1   927.8    0.00     964    61.2
 122   11:20   71.4    25    2.2   360      6.1   927.7    0.00     994    61.3
 122   11:30   71.7    25    2.4   282      6.3   927.7    0.00     790    61.5
 122   11:40   71.5    26    3.1    62      8.1   927.6    0.00     573    61.7
 122   11:50   72.4    25    2.2   188      7.9   927.6    0.00    1030    61.9
 122   12:00   73.2    23    2.5    20      7.7   927.6    0.00     851    62.1
 122   12:10   72.7    23    2.8   228      6.1   927.5    0.00     895    62.4
 122   12:20   73.1    23    2.9    61      8.2   927.5    0.00     580    62.8
 122   12:30   72.3    24    1.7    30      6.1   927.5    0.00     205    63.2
 122   12:40   71.8    24    1.8    21      6.7   927.4    0.00     220    63.5
 122   12:50   72.8    23    1.7    68      5.5   927.3    0.00     533    63.9
 122   13:00   72.3    23    3.2   159      8.3   927.3    0.00     655    64.3
 122   13:10   73.2    22    1.6   257      5.9   927.3    0.00     977    64.7
 122   13:20   73.7    22    3.8   197      7.3   927.4    0.00     910    65.0
 122   13:30   73.1    22    4.0   224      6.6   927.3    0.00     455    65.3
 122   13:40   72.6    23    3.1   211      6.0   927.3    0.00     698    65.6
 122   13:50   73.0    22    2.9   205      6.6   927.2    0.00     321    65.9
 122   14:00   73.0    23    1.3   251      3.6   927.1    0.00     200    66.3
 122   14:10   73.3    22    1.1   218      2.9   927.0    0.00     367    66.6
 122   14:20   73.2    22    2.2   147      6.0   927.0    0.00     172    66.9
 122   14:30   73.8    21    2.3   204      5.5   926.9    0.00     797    67.3
 122   14:40   74.0    21    2.5   256      5.9   926.8    0.00     776    67.6
 122   14:50   74.2    21    1.2   241      6.1   926.8    0.00     729    67.8
 122   15:00   73.9    21    1.9   119      5.2   926.7    0.00     178    68.1
 122   15:10   74.2    20    1.4    18      5.0   926.5    0.00      98    68.2
 122   15:20   74.8    21    3.2   171      8.3   926.5    0.00      65    68.4
 122   15:30   74.6    21    5.3   160     11.0   926.4    0.00      72    68.5
 122   15:40   74.0    21    3.5   177      8.8   926.3    0.00      56    68.7
 122   15:50   74.2    21    2.9   219      6.9   926.3    0.00      63    68.8
 122   16:00   75.1    20    2.9   226     10.6   926.3    0.00      71    68.8
 122   16:10   75.0    19    2.2   273      7.2   926.3    0.00      91    68.9
 122   16:20   75.1    19    3.7   214      8.4   926.3    0.00     112    68.9
 122   16:30   75.0    19    4.6   203      8.6   926.4    0.00     104    69.0
 122   16:40   75.0    19    1.2   255      5.3   926.5    0.00     193    69.0
 122   16:50   75.2    19    3.2   142      6.9   926.5    0.00     118    69.0
 122   17:00   75.1    20    2.5   110      6.6   926.6    0.00      91    69.0
 122   17:10   74.2    21    4.6    38     10.7   926.5    0.00      73    69.0
 122   17:20   74.5    21    4.7    41      9.1   926.5    0.00      64    69.0

Return to Amargosa Valley, Nevada graphs page.


Western Regional Climate Center,wrcc@dri.edu